sensor_id;sensor_type;location;lat;lon;timestamp;pressure;altitude;pressure_sealevel;temperature;humidity
37832;BME280;23671;38.090;-122.570;2023-07-13T00:01:53;101354.00;;;29.13;41.77
37832;BME280;23671;38.090;-122.570;2023-07-13T00:04:22;101359.19;;;29.14;41.92
37832;BME280;23671;38.090;-122.570;2023-07-13T00:06:49;101358.34;;;29.14;42.05
37832;BME280;23671;38.090;-122.570;2023-07-13T00:09:17;101344.97;;;29.12;42.02
37832;BME280;23671;38.090;-122.570;2023-07-13T00:11:49;101345.59;;;29.14;42.00
37832;BME280;23671;38.090;-122.570;2023-07-13T00:14:16;101346.44;;;29.15;41.97
37832;BME280;23671;38.090;-122.570;2023-07-13T00:16:46;101353.53;;;29.16;41.73
37832;BME280;23671;38.090;-122.570;2023-07-13T00:19:13;101346.44;;;29.15;42.00
37832;BME280;23671;38.090;-122.570;2023-07-13T00:21:41;101344.75;;;29.14;42.01
37832;BME280;23671;38.090;-122.570;2023-07-13T00:24:12;101338.50;;;29.13;41.81
37832;BME280;23671;38.090;-122.570;2023-07-13T00:26:40;101341.22;;;29.13;41.61
37832;BME280;23671;38.090;-122.570;2023-07-13T00:29:07;101342.25;;;29.12;41.75
37832;BME280;23671;38.090;-122.570;2023-07-13T00:31:36;101337.44;;;29.14;41.79
37832;BME280;23671;38.090;-122.570;2023-07-13T00:34:03;101341.84;;;29.15;41.71
37832;BME280;23671;38.090;-122.570;2023-07-13T00:36:31;101342.03;;;29.14;41.46
37832;BME280;23671;38.090;-122.570;2023-07-13T00:38:58;101353.13;;;29.12;41.77
37832;BME280;23671;38.090;-122.570;2023-07-13T00:41:25;101349.59;;;29.12;41.50
37832;BME280;23671;38.090;-122.570;2023-07-13T00:43:53;101353.13;;;29.12;41.65
37832;BME280;23671;38.090;-122.570;2023-07-13T00:46:27;101351.47;;;29.11;41.59
37832;BME280;23671;38.090;-122.570;2023-07-13T00:48:57;101351.72;;;29.10;41.52
37832;BME280;23671;38.090;-122.570;2023-07-13T00:51:31;101346.47;;;29.08;41.58
37832;BME280;23671;38.090;-122.570;2023-07-13T00:54:04;101344.22;;;29.05;41.27
37832;BME280;23671;38.090;-122.570;2023-07-13T00:56:33;101346.94;;;29.05;41.22
37832;BME280;23671;38.090;-122.570;2023-07-13T00:59:04;101348.81;;;29.05;41.23
37832;BME280;23671;38.090;-122.570;2023-07-13T01:01:49;101345.25;;;29.04;41.07
37832;BME280;23671;38.090;-122.570;2023-07-13T01:04:17;101344.06;;;29.00;41.08
37832;BME280;23671;38.090;-122.570;2023-07-13T01:06:46;101345.13;;;28.99;40.98
37832;BME280;23671;38.090;-122.570;2023-07-13T01:09:14;101347.84;;;28.99;40.96
37832;BME280;23671;38.090;-122.570;2023-07-13T01:11:41;101342.88;;;28.96;41.13
37832;BME280;23671;38.090;-122.570;2023-07-13T01:14:11;101342.03;;;28.96;41.29
37832;BME280;23671;38.090;-122.570;2023-07-13T01:16:40;101340.81;;;28.92;41.23
37832;BME280;23671;38.090;-122.570;2023-07-13T01:19:36;101340.81;;;28.92;41.05
37832;BME280;23671;38.090;-122.570;2023-07-13T01:22:10;101344.81;;;28.89;41.04
37832;BME280;23671;38.090;-122.570;2023-07-13T01:24:39;101335.44;;;28.85;41.14
37832;BME280;23671;38.090;-122.570;2023-07-13T01:27:08;101343.00;;;28.83;41.00
37832;BME280;23671;38.090;-122.570;2023-07-13T01:29:37;101347.81;;;28.81;40.77
37832;BME280;23671;38.090;-122.570;2023-07-13T01:32:17;101339.28;;;28.78;40.93
37832;BME280;23671;38.090;-122.570;2023-07-13T01:34:50;101343.31;;;28.75;41.01
37832;BME280;23671;38.090;-122.570;2023-07-13T01:37:18;101340.19;;;28.71;40.63
37832;BME280;23671;38.090;-122.570;2023-07-13T01:39:44;101339.38;;;28.71;40.98
37832;BME280;23671;38.090;-122.570;2023-07-13T01:42:12;101338.16;;;28.67;40.76
37832;BME280;23671;38.090;-122.570;2023-07-13T01:44:39;101331.50;;;28.63;40.48
37832;BME280;23671;38.090;-122.570;2023-07-13T01:47:07;101333.00;;;28.59;40.45
37832;BME280;23671;38.090;-122.570;2023-07-13T01:49:34;101338.88;;;28.56;40.60
37832;BME280;23671;38.090;-122.570;2023-07-13T01:52:01;101339.09;;;28.54;40.39
37832;BME280;23671;38.090;-122.570;2023-07-13T01:54:28;101328.28;;;28.48;40.57
37832;BME280;23671;38.090;-122.570;2023-07-13T01:56:55;101336.88;;;28.45;40.19
37832;BME280;23671;38.090;-122.570;2023-07-13T01:59:22;101331.28;;;28.40;40.43
37832;BME280;23671;38.090;-122.570;2023-07-13T02:01:49;101331.72;;;28.37;40.46
37832;BME280;23671;38.090;-122.570;2023-07-13T02:04:19;101338.88;;;28.31;40.19
37832;BME280;23671;38.090;-122.570;2023-07-13T02:06:46;101340.16;;;28.29;40.20
37832;BME280;23671;38.090;-122.570;2023-07-13T02:09:13;101331.00;;;28.23;40.11
37832;BME280;23671;38.090;-122.570;2023-07-13T02:11:41;101339.81;;;28.19;40.21
37832;BME280;23671;38.090;-122.570;2023-07-13T02:14:10;101340.47;;;28.14;39.20
37832;BME280;23671;38.090;-122.570;2023-07-13T02:16:38;101340.97;;;28.05;39.57
37832;BME280;23671;38.090;-122.570;2023-07-13T02:19:05;101337.03;;;28.01;39.86
37832;BME280;23671;38.090;-122.570;2023-07-13T02:21:32;101331.38;;;28.02;39.80
37832;BME280;23671;38.090;-122.570;2023-07-13T02:24:00;101341.22;;;27.97;39.70
37832;BME280;23671;38.090;-122.570;2023-07-13T02:26:27;101330.78;;;27.94;39.79
37832;BME280;23671;38.090;-122.570;2023-07-13T02:28:54;101333.31;;;27.88;39.47
37832;BME280;23671;38.090;-122.570;2023-07-13T02:31:21;101332.69;;;27.86;39.56
37832;BME280;23671;38.090;-122.570;2023-07-13T02:33:48;101329.22;;;27.79;39.38
37832;BME280;23671;38.090;-122.570;2023-07-13T02:36:16;101336.13;;;27.75;39.48
37832;BME280;23671;38.090;-122.570;2023-07-13T02:38:43;101325.09;;;27.70;39.36
37832;BME280;23671;38.090;-122.570;2023-07-13T02:41:10;101336.81;;;27.64;39.18
37832;BME280;23671;38.090;-122.570;2023-07-13T02:43:37;101338.53;;;27.59;39.19
37832;BME280;23671;38.090;-122.570;2023-07-13T02:46:05;101339.41;;;27.53;39.07
37832;BME280;23671;38.090;-122.570;2023-07-13T02:48:34;101330.47;;;27.46;38.78
37832;BME280;23671;38.090;-122.570;2023-07-13T02:51:01;101336.53;;;27.41;38.61
37832;BME280;23671;38.090;-122.570;2023-07-13T02:53:28;101338.22;;;27.36;38.38
37832;BME280;23671;38.090;-122.570;2023-07-13T02:55:55;101336.13;;;27.31;38.32
37832;BME280;23671;38.090;-122.570;2023-07-13T02:58:22;101341.16;;;27.28;38.43
37832;BME280;23671;38.090;-122.570;2023-07-13T03:00:49;101340.53;;;27.19;38.23
37832;BME280;23671;38.090;-122.570;2023-07-13T03:03:17;101335.78;;;27.15;38.24
37832;BME280;23671;38.090;-122.570;2023-07-13T03:05:45;101346.44;;;27.10;38.14
37832;BME280;23671;38.090;-122.570;2023-07-13T03:08:17;101349.19;;;27.03;37.96
37832;BME280;23671;38.090;-122.570;2023-07-13T03:10:46;101350.03;;;26.97;37.70
37832;BME280;23671;38.090;-122.570;2023-07-13T03:13:14;101350.88;;;26.91;37.65
37832;BME280;23671;38.090;-122.570;2023-07-13T03:15:41;101342.13;;;26.82;37.81
37832;BME280;23671;38.090;-122.570;2023-07-13T03:18:08;101348.59;;;26.75;37.86
37832;BME280;23671;38.090;-122.570;2023-07-13T03:20:35;101355.47;;;26.71;37.71
37832;BME280;23671;38.090;-122.570;2023-07-13T03:23:03;101355.25;;;26.66;37.84
37832;BME280;23671;38.090;-122.570;2023-07-13T03:25:30;101355.88;;;26.61;37.49
37832;BME280;23671;38.090;-122.570;2023-07-13T03:27:57;101357.38;;;26.51;37.48
37832;BME280;23671;38.090;-122.570;2023-07-13T03:30:24;101360.28;;;26.43;37.55
37832;BME280;23671;38.090;-122.570;2023-07-13T03:32:51;101355.69;;;26.37;37.44
37832;BME280;23671;38.090;-122.570;2023-07-13T03:35:18;101355.72;;;26.30;37.27
37832;BME280;23671;38.090;-122.570;2023-07-13T03:37:45;101353.00;;;26.24;37.40
37832;BME280;23671;38.090;-122.570;2023-07-13T03:40:13;101366.34;;;26.19;37.30
37832;BME280;23671;38.090;-122.570;2023-07-13T03:42:40;101361.53;;;26.14;37.17
37832;BME280;23671;38.090;-122.570;2023-07-13T03:45:08;101366.31;;;26.05;37.37
37832;BME280;23671;38.090;-122.570;2023-07-13T03:47:35;101361.06;;;25.97;37.17
37832;BME280;23671;38.090;-122.570;2023-07-13T03:50:05;101366.25;;;25.92;36.89
37832;BME280;23671;38.090;-122.570;2023-07-13T03:52:32;101371.84;;;25.84;37.05
37832;BME280;23671;38.090;-122.570;2023-07-13T03:54:59;101372.03;;;25.76;36.93
37832;BME280;23671;38.090;-122.570;2023-07-13T03:57:26;101368.50;;;25.69;36.79
37832;BME280;23671;38.090;-122.570;2023-07-13T03:59:53;101372.00;;;25.63;36.75
37832;BME280;23671;38.090;-122.570;2023-07-13T04:02:21;101374.50;;;25.58;36.80
37832;BME280;23671;38.090;-122.570;2023-07-13T04:04:48;101373.03;;;25.49;36.84
37832;BME280;23671;38.090;-122.570;2023-07-13T04:07:15;101378.19;;;25.44;36.44
37832;BME280;23671;38.090;-122.570;2023-07-13T04:09:42;101386.44;;;25.36;36.80
37832;BME280;23671;38.090;-122.570;2023-07-13T04:12:09;101378.06;;;25.24;36.89
37832;BME280;23671;38.090;-122.570;2023-07-13T04:14:37;101382.19;;;25.20;36.80
37832;BME280;23671;38.090;-122.570;2023-07-13T04:17:04;101386.75;;;25.13;36.58
37832;BME280;23671;38.090;-122.570;2023-07-13T04:19:31;101384.84;;;25.07;36.68
37832;BME280;23671;38.090;-122.570;2023-07-13T04:21:58;101399.34;;;25.00;36.89
37832;BME280;23671;38.090;-122.570;2023-07-13T04:24:25;101397.22;;;24.95;36.66
37832;BME280;23671;38.090;-122.570;2023-07-13T04:26:52;101399.69;;;24.90;36.63
37832;BME280;23671;38.090;-122.570;2023-07-13T04:29:19;101401.53;;;24.83;36.65
37832;BME280;23671;38.090;-122.570;2023-07-13T04:31:48;101412.28;;;24.77;36.85
37832;BME280;23671;38.090;-122.570;2023-07-13T04:34:15;101409.34;;;24.72;36.83
37832;BME280;23671;38.090;-122.570;2023-07-13T04:36:43;101414.44;;;24.67;37.04
37832;BME280;23671;38.090;-122.570;2023-07-13T04:39:10;101413.97;;;24.57;36.94
37832;BME280;23671;38.090;-122.570;2023-07-13T04:41:37;101417.47;;;24.51;37.00
37832;BME280;23671;38.090;-122.570;2023-07-13T04:44:04;101419.69;;;24.47;37.05
37832;BME280;23671;38.090;-122.570;2023-07-13T04:46:31;101419.66;;;24.41;37.13
37832;BME280;23671;38.090;-122.570;2023-07-13T04:48:58;101430.16;;;24.35;37.22
37832;BME280;23671;38.090;-122.570;2023-07-13T04:51:25;101432.19;;;24.27;37.12
37832;BME280;23671;38.090;-122.570;2023-07-13T04:53:53;101443.53;;;24.22;37.25
37832;BME280;23671;38.090;-122.570;2023-07-13T04:56:20;101443.31;;;24.17;37.19
37832;BME280;23671;38.090;-122.570;2023-07-13T04:58:47;101438.88;;;24.10;37.40
37832;BME280;23671;38.090;-122.570;2023-07-13T05:01:14;101449.78;;;24.02;37.25
37832;BME280;23671;38.090;-122.570;2023-07-13T05:03:41;101447.81;;;23.96;37.24
37832;BME280;23671;38.090;-122.570;2023-07-13T05:06:09;101458.78;;;23.94;37.21
37832;BME280;23671;38.090;-122.570;2023-07-13T05:08:40;101457.84;;;23.87;37.50
37832;BME280;23671;38.090;-122.570;2023-07-13T05:11:07;101461.78;;;23.85;37.40
37832;BME280;23671;38.090;-122.570;2023-07-13T05:13:34;101471.94;;;23.83;37.48
37832;BME280;23671;38.090;-122.570;2023-07-13T05:16:06;101467.09;;;23.78;37.37
37832;BME280;23671;38.090;-122.570;2023-07-13T05:18:34;101466.44;;;23.76;37.51
37832;BME280;23671;38.090;-122.570;2023-07-13T05:21:07;101473.63;;;23.69;37.52
37832;BME280;23671;38.090;-122.570;2023-07-13T05:23:36;101478.09;;;23.62;37.35
37832;BME280;23671;38.090;-122.570;2023-07-13T05:26:06;101476.31;;;23.55;37.58
37832;BME280;23671;38.090;-122.570;2023-07-13T05:28:33;101476.72;;;23.52;37.59
37832;BME280;23671;38.090;-122.570;2023-07-13T05:31:00;101483.03;;;23.44;37.63
37832;BME280;23671;38.090;-122.570;2023-07-13T05:33:30;101482.94;;;23.37;37.42
37832;BME280;23671;38.090;-122.570;2023-07-13T05:35:57;101491.41;;;23.34;37.66
37832;BME280;23671;38.090;-122.570;2023-07-13T05:38:24;101484.22;;;23.27;37.61
37832;BME280;23671;38.090;-122.570;2023-07-13T05:40:53;101485.59;;;23.23;37.80
37832;BME280;23671;38.090;-122.570;2023-07-13T05:43:20;101486.34;;;23.17;37.62
37832;BME280;23671;38.090;-122.570;2023-07-13T05:45:48;101481.03;;;23.09;37.56
37832;BME280;23671;38.090;-122.570;2023-07-13T05:48:16;101485.28;;;23.03;37.69
37832;BME280;23671;38.090;-122.570;2023-07-13T05:50:43;101486.88;;;22.98;37.83
37832;BME280;23671;38.090;-122.570;2023-07-13T05:53:11;101485.09;;;22.90;37.89
37832;BME280;23671;38.090;-122.570;2023-07-13T05:55:45;101489.16;;;22.86;37.80
37832;BME280;23671;38.090;-122.570;2023-07-13T05:58:19;101494.44;;;22.80;38.10
37832;BME280;23671;38.090;-122.570;2023-07-13T06:00:48;101493.50;;;22.73;38.14
37832;BME280;23671;38.090;-122.570;2023-07-13T06:03:15;101492.53;;;22.66;38.07
37832;BME280;23671;38.090;-122.570;2023-07-13T06:05:42;101497.63;;;22.61;38.20
37832;BME280;23671;38.090;-122.570;2023-07-13T06:08:09;101493.59;;;22.56;38.22
37832;BME280;23671;38.090;-122.570;2023-07-13T06:10:37;101497.16;;;22.49;38.24
37832;BME280;23671;38.090;-122.570;2023-07-13T06:13:04;101489.00;;;22.42;38.25
37832;BME280;23671;38.090;-122.570;2023-07-13T06:15:31;101487.69;;;22.38;38.27
37832;BME280;23671;38.090;-122.570;2023-07-13T06:17:58;101492.72;;;22.33;38.35
37832;BME280;23671;38.090;-122.570;2023-07-13T06:20:25;101485.22;;;22.29;38.37
37832;BME280;23671;38.090;-122.570;2023-07-13T06:22:52;101497.34;;;22.25;38.44
37832;BME280;23671;38.090;-122.570;2023-07-13T06:25:19;101487.47;;;22.17;38.59
37832;BME280;23671;38.090;-122.570;2023-07-13T06:27:46;101489.50;;;22.15;38.45
37832;BME280;23671;38.090;-122.570;2023-07-13T06:30:14;101489.38;;;22.09;38.54
37832;BME280;23671;38.090;-122.570;2023-07-13T06:32:41;101486.53;;;22.02;38.65
37832;BME280;23671;38.090;-122.570;2023-07-13T06:35:08;101488.94;;;21.97;38.78
37832;BME280;23671;38.090;-122.570;2023-07-13T06:37:39;101484.56;;;21.96;38.82
37832;BME280;23671;38.090;-122.570;2023-07-13T06:40:06;101492.31;;;21.91;38.68
37832;BME280;23671;38.090;-122.570;2023-07-13T06:42:33;101479.75;;;21.84;38.74
37832;BME280;23671;38.090;-122.570;2023-07-13T06:45:00;101483.94;;;21.78;38.75
37832;BME280;23671;38.090;-122.570;2023-07-13T06:47:27;101479.94;;;21.74;38.89
37832;BME280;23671;38.090;-122.570;2023-07-13T06:49:54;101481.00;;;21.65;38.97
37832;BME280;23671;38.090;-122.570;2023-07-13T06:52:22;101481.19;;;21.63;39.01
37832;BME280;23671;38.090;-122.570;2023-07-13T06:54:49;101475.66;;;21.57;38.88
37832;BME280;23671;38.090;-122.570;2023-07-13T06:57:16;101472.66;;;21.52;39.08
37832;BME280;23671;38.090;-122.570;2023-07-13T06:59:43;101477.69;;;21.47;39.02
37832;BME280;23671;38.090;-122.570;2023-07-13T07:02:11;101482.94;;;21.40;39.11
37832;BME280;23671;38.090;-122.570;2023-07-13T07:04:38;101473.69;;;21.35;39.16
37832;BME280;23671;38.090;-122.570;2023-07-13T07:07:05;101475.88;;;21.31;39.19
37832;BME280;23671;38.090;-122.570;2023-07-13T07:09:32;101475.75;;;21.25;39.22
37832;BME280;23671;38.090;-122.570;2023-07-13T07:11:59;101476.44;;;21.19;39.43
37832;BME280;23671;38.090;-122.570;2023-07-13T07:14:26;101480.66;;;21.13;39.25
37832;BME280;23671;38.090;-122.570;2023-07-13T07:16:53;101475.97;;;21.07;39.40
37832;BME280;23671;38.090;-122.570;2023-07-13T07:19:20;101483.53;;;21.04;39.50
37832;BME280;23671;38.090;-122.570;2023-07-13T07:21:47;101472.75;;;20.96;39.54
37832;BME280;23671;38.090;-122.570;2023-07-13T07:24:15;101473.44;;;20.90;39.49
37832;BME280;23671;38.090;-122.570;2023-07-13T07:26:42;101471.25;;;20.85;39.56
37832;BME280;23671;38.090;-122.570;2023-07-13T07:29:09;101470.94;;;20.80;39.67
37832;BME280;23671;38.090;-122.570;2023-07-13T07:31:39;101473.44;;;20.73;39.68
37832;BME280;23671;38.090;-122.570;2023-07-13T07:34:06;101473.97;;;20.69;39.85
37832;BME280;23671;38.090;-122.570;2023-07-13T07:36:33;101478.81;;;20.65;39.99
37832;BME280;23671;38.090;-122.570;2023-07-13T07:39:00;101480.47;;;20.58;39.94
37832;BME280;23671;38.090;-122.570;2023-07-13T07:41:27;101470.75;;;20.49;40.01
37832;BME280;23671;38.090;-122.570;2023-07-13T07:43:55;101469.41;;;20.45;40.06
37832;BME280;23671;38.090;-122.570;2023-07-13T07:46:22;101468.38;;;20.38;39.99
37832;BME280;23671;38.090;-122.570;2023-07-13T07:48:49;101460.69;;;20.35;40.25
37832;BME280;23671;38.090;-122.570;2023-07-13T07:51:16;101472.75;;;20.31;40.09
37832;BME280;23671;38.090;-122.570;2023-07-13T07:53:43;101466.03;;;20.27;40.12
37832;BME280;23671;38.090;-122.570;2023-07-13T07:56:10;101464.19;;;20.20;40.24
37832;BME280;23671;38.090;-122.570;2023-07-13T07:58:37;101468.16;;;20.16;40.18
37832;BME280;23671;38.090;-122.570;2023-07-13T08:01:06;101464.31;;;20.10;40.22
37832;BME280;23671;38.090;-122.570;2023-07-13T08:03:33;101473.84;;;20.05;40.45
37832;BME280;23671;38.090;-122.570;2023-07-13T08:06:00;101478.69;;;20.01;40.50
37832;BME280;23671;38.090;-122.570;2023-07-13T08:08:27;101469.31;;;19.97;40.37
37832;BME280;23671;38.090;-122.570;2023-07-13T08:10:54;101469.78;;;19.92;40.39
37832;BME280;23671;38.090;-122.570;2023-07-13T08:13:21;101465.56;;;19.90;40.51
37832;BME280;23671;38.090;-122.570;2023-07-13T08:15:49;101478.34;;;19.88;40.46
37832;BME280;23671;38.090;-122.570;2023-07-13T08:18:16;101474.25;;;19.76;40.58
37832;BME280;23671;38.090;-122.570;2023-07-13T08:20:43;101479.78;;;19.74;40.63
37832;BME280;23671;38.090;-122.570;2023-07-13T08:23:11;101476.56;;;19.71;40.79
37832;BME280;23671;38.090;-122.570;2023-07-13T08:25:38;101472.41;;;19.68;40.83
37832;BME280;23671;38.090;-122.570;2023-07-13T08:28:05;101481.94;;;19.63;40.88
37832;BME280;23671;38.090;-122.570;2023-07-13T08:30:32;101475.34;;;19.57;40.91
37832;BME280;23671;38.090;-122.570;2023-07-13T08:32:59;101475.00;;;19.52;40.91
37832;BME280;23671;38.090;-122.570;2023-07-13T08:35:26;101477.00;;;19.50;40.88
37832;BME280;23671;38.090;-122.570;2023-07-13T08:37:53;101476.78;;;19.44;40.96
37832;BME280;23671;38.090;-122.570;2023-07-13T08:40:24;101476.13;;;19.42;41.01
37832;BME280;23671;38.090;-122.570;2023-07-13T08:42:59;101475.75;;;19.37;41.13
37832;BME280;23671;38.090;-122.570;2023-07-13T08:45:44;101472.69;;;19.32;41.10
37832;BME280;23671;38.090;-122.570;2023-07-13T08:51:27;101471.34;;;19.28;41.23
37832;BME280;23671;38.090;-122.570;2023-07-13T08:54:00;101471.78;;;19.23;41.20
37832;BME280;23671;38.090;-122.570;2023-07-13T08:56:31;101468.09;;;19.16;41.32
37832;BME280;23671;38.090;-122.570;2023-07-13T08:59:32;101460.22;;;19.15;41.35
37832;BME280;23671;38.090;-122.570;2023-07-13T09:10:28;101458.56;;;18.96;41.36
37832;BME280;23671;38.090;-122.570;2023-07-13T09:15:51;101466.72;;;18.86;41.53
37832;BME280;23671;38.090;-122.570;2023-07-13T09:18:28;101468.19;;;18.81;41.60
37832;BME280;23671;38.090;-122.570;2023-07-13T09:21:22;101470.00;;;18.80;41.62
37832;BME280;23671;38.090;-122.570;2023-07-13T09:23:45;101463.28;;;18.76;41.71
37832;BME280;23671;38.090;-122.570;2023-07-13T09:26:19;101464.75;;;18.71;41.50
37832;BME280;23671;38.090;-122.570;2023-07-13T09:28:57;101465.75;;;18.70;41.57
37832;BME280;23671;38.090;-122.570;2023-07-13T09:31:39;101459.50;;;18.61;41.58
37832;BME280;23671;38.090;-122.570;2023-07-13T09:34:13;101461.31;;;18.61;41.78
37832;BME280;23671;38.090;-122.570;2023-07-13T09:36:40;101461.81;;;18.56;41.86
37832;BME280;23671;38.090;-122.570;2023-07-13T09:39:27;101453.38;;;18.51;41.82
37832;BME280;23671;38.090;-122.570;2023-07-13T09:44:37;101462.03;;;18.45;42.13
37832;BME280;23671;38.090;-122.570;2023-07-13T09:47:16;101460.63;;;18.41;42.02
37832;BME280;23671;38.090;-122.570;2023-07-13T09:49:43;101464.28;;;18.40;41.91
37832;BME280;23671;38.090;-122.570;2023-07-13T09:52:16;101462.63;;;18.39;41.90
37832;BME280;23671;38.090;-122.570;2023-07-13T09:54:48;101465.22;;;18.31;42.03
37832;BME280;23671;38.090;-122.570;2023-07-13T09:57:18;101459.34;;;18.28;42.15
37832;BME280;23671;38.090;-122.570;2023-07-13T09:59:48;101460.47;;;18.25;41.99
37832;BME280;23671;38.090;-122.570;2023-07-13T10:07:31;101453.38;;;18.16;41.94
37832;BME280;23671;38.090;-122.570;2023-07-13T10:10:00;101459.53;;;18.16;42.22
37832;BME280;23671;38.090;-122.570;2023-07-13T10:12:30;101459.16;;;18.11;42.18
37832;BME280;23671;38.090;-122.570;2023-07-13T10:15:02;101460.19;;;18.10;42.20
37832;BME280;23671;38.090;-122.570;2023-07-13T10:17:32;101462.97;;;18.09;42.35
37832;BME280;23671;38.090;-122.570;2023-07-13T10:20:02;101460.91;;;18.03;42.19
37832;BME280;23671;38.090;-122.570;2023-07-13T10:23:00;101452.50;;;17.98;42.40
37832;BME280;23671;38.090;-122.570;2023-07-13T10:25:38;101452.66;;;17.96;42.39
37832;BME280;23671;38.090;-122.570;2023-07-13T10:30:49;101451.28;;;17.92;42.22
37832;BME280;23671;38.090;-122.570;2023-07-13T10:33:17;101447.94;;;17.90;42.45
37832;BME280;23671;38.090;-122.570;2023-07-13T10:35:45;101458.06;;;17.87;42.27
37832;BME280;23671;38.090;-122.570;2023-07-13T10:38:22;101454.31;;;17.80;42.49
37832;BME280;23671;38.090;-122.570;2023-07-13T10:41:11;101450.81;;;17.79;42.43
37832;BME280;23671;38.090;-122.570;2023-07-13T10:43:47;101456.31;;;17.78;42.59
37832;BME280;23671;38.090;-122.570;2023-07-13T10:46:20;101447.88;;;17.73;42.32
37832;BME280;23671;38.090;-122.570;2023-07-13T10:48:51;101450.72;;;17.71;42.51
37832;BME280;23671;38.090;-122.570;2023-07-13T10:51:20;101457.19;;;17.69;42.67
37832;BME280;23671;38.090;-122.570;2023-07-13T10:54:10;101455.53;;;17.68;42.53
37832;BME280;23671;38.090;-122.570;2023-07-13T10:56:39;101459.47;;;17.64;42.72
37832;BME280;23671;38.090;-122.570;2023-07-13T11:02:26;101454.88;;;17.56;42.50
37832;BME280;23671;38.090;-122.570;2023-07-13T11:04:56;101453.50;;;17.52;42.45
37832;BME280;23671;38.090;-122.570;2023-07-13T11:07:29;101456.00;;;17.54;42.72
37832;BME280;23671;38.090;-122.570;2023-07-13T11:10:06;101452.22;;;17.47;42.75
37832;BME280;23671;38.090;-122.570;2023-07-13T11:12:55;101451.38;;;17.46;42.81
37832;BME280;23671;38.090;-122.570;2023-07-13T11:15:42;101453.03;;;17.47;42.87
37832;BME280;23671;38.090;-122.570;2023-07-13T11:18:22;101451.69;;;17.43;42.87
37832;BME280;23671;38.090;-122.570;2023-07-13T11:20:50;101455.63;;;17.39;42.68
37832;BME280;23671;38.090;-122.570;2023-07-13T11:25:44;101446.66;;;17.31;42.93
37832;BME280;23671;38.090;-122.570;2023-07-13T11:33:51;101452.31;;;17.27;42.75
37832;BME280;23671;38.090;-122.570;2023-07-13T11:36:21;101453.28;;;17.26;42.78
37832;BME280;23671;38.090;-122.570;2023-07-13T11:39:10;101461.59;;;17.23;43.01
37832;BME280;23671;38.090;-122.570;2023-07-13T11:41:54;101457.69;;;17.18;43.21
37832;BME280;23671;38.090;-122.570;2023-07-13T11:44:25;101465.53;;;17.19;43.05
37832;BME280;23671;38.090;-122.570;2023-07-13T11:46:53;101458.66;;;17.17;42.82
37832;BME280;23671;38.090;-122.570;2023-07-13T11:49:23;101462.59;;;17.13;42.94
37832;BME280;23671;38.090;-122.570;2023-07-13T11:51:51;101468.09;;;17.11;43.11
37832;BME280;23671;38.090;-122.570;2023-07-13T11:54:31;101472.72;;;17.09;43.34
37832;BME280;23671;38.090;-122.570;2023-07-13T11:59:47;101460.97;;;17.02;43.04
37832;BME280;23671;38.090;-122.570;2023-07-13T12:04:55;101464.19;;;16.96;43.12
37832;BME280;23671;38.090;-122.570;2023-07-13T12:07:23;101474.16;;;16.94;43.13
37832;BME280;23671;38.090;-122.570;2023-07-13T12:09:50;101479.66;;;16.93;43.26
37832;BME280;23671;38.090;-122.570;2023-07-13T12:12:28;101475.44;;;16.90;43.19
37832;BME280;23671;38.090;-122.570;2023-07-13T12:14:55;101482.44;;;16.91;43.11
37832;BME280;23671;38.090;-122.570;2023-07-13T12:17:24;101476.72;;;16.86;43.48
37832;BME280;23671;38.090;-122.570;2023-07-13T12:19:53;101482.03;;;16.86;43.23
37832;BME280;23671;38.090;-122.570;2023-07-13T12:22:21;101477.97;;;16.82;43.33
37832;BME280;23671;38.090;-122.570;2023-07-13T12:24:49;101480.25;;;16.77;43.59
37832;BME280;23671;38.090;-122.570;2023-07-13T12:27:28;101472.94;;;16.79;43.57
37832;BME280;23671;38.090;-122.570;2023-07-13T12:33:10;101486.84;;;16.73;43.29
37832;BME280;23671;38.090;-122.570;2023-07-13T12:35:49;101492.19;;;16.73;43.36
37832;BME280;23671;38.090;-122.570;2023-07-13T12:38:19;101500.75;;;16.67;43.44
37832;BME280;23671;38.090;-122.570;2023-07-13T12:40:53;101495.81;;;16.63;43.85
37832;BME280;23671;38.090;-122.570;2023-07-13T12:43:21;101500.31;;;16.62;43.71
37832;BME280;23671;38.090;-122.570;2023-07-13T12:46:17;101504.25;;;16.58;43.46
37832;BME280;23671;38.090;-122.570;2023-07-13T12:48:47;101501.00;;;16.55;43.87
37832;BME280;23671;38.090;-122.570;2023-07-13T12:51:16;101504.69;;;16.54;43.90
37832;BME280;23671;38.090;-122.570;2023-07-13T12:53:48;101515.50;;;16.52;43.92
37832;BME280;23671;38.090;-122.570;2023-07-13T12:56:22;101512.66;;;16.54;43.79
37832;BME280;23671;38.090;-122.570;2023-07-13T12:58:54;101511.13;;;16.51;43.62
37832;BME280;23671;38.090;-122.570;2023-07-13T13:01:28;101510.53;;;16.48;43.55
37832;BME280;23671;38.090;-122.570;2023-07-13T13:03:56;101504.63;;;16.44;43.74
37832;BME280;23671;38.090;-122.570;2023-07-13T13:06:28;101511.94;;;16.42;43.70
37832;BME280;23671;38.090;-122.570;2023-07-13T13:08:58;101512.09;;;16.41;43.68
37832;BME280;23671;38.090;-122.570;2023-07-13T13:11:28;101512.50;;;16.36;43.79
37832;BME280;23671;38.090;-122.570;2023-07-13T13:13:55;101515.28;;;16.34;43.80
37832;BME280;23671;38.090;-122.570;2023-07-13T13:18:52;101518.38;;;16.30;44.18
37832;BME280;23671;38.090;-122.570;2023-07-13T13:21:23;101518.66;;;16.27;44.22